Time;durP1;ratioP1;P1;durP2;ratioP2;P2;SDS_P1;SDS_P2;PMS_P1;PMS_P2;Temp;Humidity;BMP_temperature;BMP_pressure;BME280_temperature;BME280_humidity;BME280_pressure;Samples;Min_cycle;Max_cycle;Signal;HPM_P1;HPM_P2
2021/05/07 00:01:58;;;;;;;8.98;6.95;;;;;;;6.59;60.68;99813.56;1690141;83;20305;-73
2021/05/07 00:04:25;;;;;;;10.15;7.47;;;;;;;6.59;60.48;99816.56;1677685;83;21191;-73
2021/05/07 00:06:52;;;;;;;10.50;7.35;;;;;;;6.60;60.56;99811.84;1687763;83;21599;-73
2021/05/07 00:09:19;;;;;;;;;;;;;;;6.62;60.55;99812.24;1690812;83;21056;-73
2021/05/07 00:11:47;;;;;;;11.45;7.10;;;;;;;6.64;60.87;99812.23;1683570;83;20283;-73
2021/05/07 00:14:14;;;;;;;15.23;9.63;;;;;;;6.58;60.63;99809.73;1684775;83;21219;-73
2021/05/07 00:16:40;;;;;;;13.32;9.50;;;;;;;6.59;60.76;99811.00;1690516;83;21230;-73
2021/05/07 00:19:08;;;;;;;16.48;10.20;;;;;;;6.62;60.80;99808.39;1690461;83;21218;-73
2021/05/07 00:21:34;;;;;;;15.68;11.35;;;;;;;6.60;60.65;99806.71;1687884;83;21195;-73
2021/05/07 00:24:01;;;;;;;15.58;11.80;;;;;;;6.52;60.72;99805.52;1682184;83;21210;-73
2021/05/07 00:26:35;;;;;;;20.43;13.68;;;;;;;6.49;60.87;99802.14;1689996;83;21250;-73
2021/05/07 00:29:01;;;;;;;19.30;13.65;;;;;;;6.51;60.95;99804.25;1676720;83;21243;-73
2021/05/07 00:31:28;;;;;;;30.25;18.55;;;;;;;6.52;61.11;99799.09;1666404;83;21186;-73
2021/05/07 00:33:55;;;;;;;33.58;22.75;;;;;;;6.58;61.23;99798.17;1683528;83;21230;-73
2021/05/07 00:36:21;;;;;;;36.85;24.63;;;;;;;6.63;61.26;99792.11;1687232;83;21771;-73
2021/05/07 00:38:47;;;;;;;37.15;26.20;;;;;;;6.69;61.34;99794.19;1676967;83;21182;-73
2021/05/07 00:41:14;;;;;;;44.75;31.77;;;;;;;6.72;61.35;99796.28;1676891;83;21254;-73
2021/05/07 00:43:41;;;;;;;43.80;29.40;;;;;;;6.76;61.39;99796.62;1665458;83;21215;-73
2021/05/07 00:46:07;;;;;;;43.02;29.82;;;;;;;6.78;61.40;99788.89;1666939;83;21194;-73
2021/05/07 00:48:35;;;;;;;41.68;30.62;;;;;;;6.74;61.40;99786.83;1689126;83;28182;-73
2021/05/07 00:51:02;;;;;;;39.80;28.32;;;;;;;6.76;61.50;99788.91;1673157;83;21123;-73
2021/05/07 00:53:28;;;;;;;38.48;28.20;;;;;;;6.76;61.51;99794.05;1682323;83;21136;-73
2021/05/07 00:55:55;;;;;;;39.00;28.65;;;;;;;6.76;61.69;99785.06;1674318;83;21162;-73
2021/05/07 00:58:22;;;;;;;40.85;28.27;;;;;;;6.80;61.74;99788.00;1686820;83;24322;-73
2021/05/07 01:01:07;;;;;;;39.15;28.55;;;;;;;6.83;61.82;99785.82;1683264;83;21115;-73
2021/05/07 01:03:33;;;;;;;45.20;30.45;;;;;;;6.85;61.76;99781.51;1678818;83;21164;-73
2021/05/07 01:06:00;;;;;;;38.98;27.30;;;;;;;6.85;61.93;99775.94;1695691;83;21123;-73
2021/05/07 01:08:27;;;;;;;40.15;28.25;;;;;;;6.89;61.90;99781.45;1685353;83;28301;-73
2021/05/07 01:10:54;;;;;;;40.10;28.20;;;;;;;6.93;62.02;99772.82;1690123;83;21208;-73
2021/05/07 01:13:20;;;;;;;35.88;25.48;;;;;;;6.96;61.92;99771.49;1675052;83;21226;-73
2021/05/07 01:15:47;;;;;;;37.58;26.80;;;;;;;6.96;62.05;99768.07;1683739;83;21222;-73
2021/05/07 01:18:15;;;;;;;42.33;27.77;;;;;;;6.98;62.16;99769.75;1678237;83;21238;-73
2021/05/07 01:20:42;;;;;;;34.48;27.27;;;;;;;7.02;62.14;99764.13;1679473;83;21253;-73
2021/05/07 01:23:10;;;;;;;40.30;29.15;;;;;;;7.05;62.22;99765.80;1681533;83;21175;-73
2021/05/07 01:25:40;;;;;;;37.88;27.05;;;;;;;7.07;62.18;99759.77;1687582;83;21119;-73
2021/05/07 01:28:11;;;;;;;36.05;26.05;;;;;;;7.07;62.17;99757.20;1675166;85;21123;-73
2021/05/07 01:30:42;;;;;;;32.42;24.00;;;;;;;7.10;62.30;99753.73;1687388;83;20989;-73
2021/05/07 01:33:13;;;;;;;34.40;25.92;;;;;;;7.09;62.28;99758.45;1684456;83;21009;-73
2021/05/07 01:35:36;;;;;;;34.50;25.10;;;;;;;7.07;62.32;99750.77;1685144;83;21018;-73
2021/05/07 01:38:09;;;;;;;35.45;25.62;;;;;;;7.09;62.38;99754.16;1688716;83;21017;-73
2021/05/07 01:40:45;;;;;;;35.15;23.75;;;;;;;7.10;62.45;99753.30;1669161;83;21143;-73
2021/05/07 01:43:12;;;;;;;34.58;25.02;;;;;;;7.13;62.53;99747.25;1688640;83;21362;-73
2021/05/07 01:45:45;;;;;;;39.50;25.92;;;;;;;7.14;62.51;99744.66;1684210;83;21155;-73
2021/05/07 01:48:12;;;;;;;36.60;24.32;;;;;;;7.15;62.58;99748.08;1673541;83;21145;-73
2021/05/07 01:50:42;;;;;;;33.05;22.82;;;;;;;7.13;62.58;99742.96;1676216;83;21198;-73
2021/05/07 01:53:10;;;;;;;32.17;22.62;;;;;;;7.11;62.54;99747.71;1655259;83;21170;-73
2021/05/07 01:55:43;;;;;;;31.90;22.05;;;;;;;7.03;62.50;99746.55;1686956;83;21134;-73
2021/05/07 01:58:14;;;;;;;32.60;22.05;;;;;;;7.00;62.73;99750.89;1678384;83;21254;-73
2021/05/07 02:00:41;;;;;;;30.40;21.60;;;;;;;7.02;62.85;99749.98;1683845;83;21013;-73
2021/05/07 02:03:07;;;;;;;36.50;22.05;;;;;;;7.04;62.82;99748.25;1687300;83;21111;-73
2021/05/07 02:05:34;;;;;;;;;;;;;;;7.05;62.89;99749.09;1681133;83;21169;-73
2021/05/07 02:08:08;;;;;;;27.62;19.57;;;;;;;7.06;63.29;99749.07;1684616;83;20286;-73
2021/05/07 02:10:35;;;;;;;33.00;20.77;;;;;;;7.06;63.00;99749.07;1683590;83;21271;-73
2021/05/07 02:13:06;;;;;;;32.50;20.27;;;;;;;7.07;63.00;99746.06;1675504;84;21586;-73
2021/05/07 02:15:33;;;;;;;27.65;19.70;;;;;;;7.07;63.10;99749.92;1690067;83;21005;-73
2021/05/07 02:17:59;;;;;;;;;;;;;;;7.09;63.17;99749.45;1694679;83;20985;-73
2021/05/07 02:20:28;;;;;;;29.35;18.35;;;;;;;7.09;63.45;99746.45;1689115;83;20166;-73
2021/05/07 02:22:55;;;;;;;26.60;17.52;;;;;;;7.08;63.17;99742.19;1693017;83;21167;-73
2021/05/07 02:25:23;;;;;;;;;;;;;;;6.98;63.12;99741.48;1688832;83;21151;-73
2021/05/07 02:27:51;;;;;;;19.62;15.55;;;;;;;7.00;63.69;99740.61;1692580;83;20243;-73
2021/05/07 02:30:22;;;;;;;29.87;16.67;;;;;;;6.98;63.39;99738.91;1689138;83;21013;-73
2021/05/07 02:32:48;;;;;;;27.73;18.23;;;;;;;6.99;63.41;99739.75;1687560;83;21416;-73
2021/05/07 02:35:17;;;;;;;31.27;18.17;;;;;;;7.00;63.44;99730.33;1677483;85;21020;-73
2021/05/07 02:37:44;;;;;;;23.55;17.55;;;;;;;7.00;63.42;99737.59;1681755;83;21166;-73
2021/05/07 02:40:11;;;;;;;27.37;17.20;;;;;;;7.01;63.54;99735.44;1676703;83;26508;-73
2021/05/07 02:42:38;;;;;;;25.27;16.93;;;;;;;7.01;63.47;99739.30;1668941;83;21116;-73
2021/05/07 02:45:07;;;;;;;23.98;15.70;;;;;;;6.95;63.48;99729.95;1686007;83;20992;-73
2021/05/07 02:47:35;;;;;;;24.43;16.42;;;;;;;6.93;63.58;99732.14;1669027;83;21073;-73
2021/05/07 02:50:04;;;;;;;28.85;18.00;;;;;;;6.93;63.71;99727.84;1681103;83;20988;-73
2021/05/07 02:52:40;;;;;;;23.95;17.20;;;;;;;6.93;63.72;99723.99;1690000;83;21114;-73
2021/05/07 02:55:08;;;;;;;29.60;17.07;;;;;;;6.95;63.79;99725.25;1679518;83;21227;-73
2021/05/07 02:57:35;;;;;;;21.82;14.18;;;;;;;6.95;63.78;99722.25;1672238;85;21139;-73
2021/05/07 03:00:06;;;;;;;24.40;16.12;;;;;;;6.94;63.70;99725.69;1688932;83;21150;-73
2021/05/07 03:02:33;;;;;;;26.80;16.15;;;;;;;6.91;63.82;99721.03;1661946;83;21023;-73
2021/05/07 03:04:59;;;;;;;21.15;14.13;;;;;;;6.92;63.90;99719.73;1691648;83;21489;-73
2021/05/07 03:07:28;;;;;;;24.07;15.03;;;;;;;6.90;63.93;99721.47;1680407;83;21166;-73
2021/05/07 03:09:54;;;;;;;17.25;14.28;;;;;;;6.90;63.99;99724.47;1685287;83;21222;-73
2021/05/07 03:12:20;;;;;;;20.23;13.62;;;;;;;6.87;63.87;99723.23;1685708;83;21230;-73
2021/05/07 03:14:49;;;;;;;26.50;14.68;;;;;;;6.81;63.95;99728.03;1686848;83;21223;-73
2021/05/07 03:17:16;;;;;;;21.85;13.93;;;;;;;6.81;64.08;99725.90;1664654;85;21253;-73
2021/05/07 03:19:42;;;;;;;21.95;14.13;;;;;;;6.80;64.10;99723.77;1690374;83;21202;-73
2021/05/07 03:22:27;;;;;;;19.57;13.75;;;;;;;6.79;64.09;99727.20;1669418;83;21254;-73
2021/05/07 03:24:53;;;;;;;23.73;14.23;;;;;;;6.76;64.14;99720.01;1680278;83;21230;-73
2021/05/07 03:27:19;;;;;;;19.27;13.40;;;;;;;6.73;64.16;99725.19;1676906;83;21081;-73
2021/05/07 03:29:53;;;;;;;22.95;14.63;;;;;;;6.68;64.21;99727.83;1678531;83;21258;-73
2021/05/07 03:32:19;;;;;;;24.80;15.15;;;;;;;6.63;64.22;99730.46;1666574;83;21253;-73
2021/05/07 03:34:48;;;;;;;21.45;14.28;;;;;;;6.63;64.29;99727.89;1687758;83;21210;-73
2021/05/07 03:37:14;;;;;;;22.70;13.55;;;;;;;6.63;64.38;99730.89;1682192;83;21270;-73
2021/05/07 03:39:40;;;;;;;17.92;13.15;;;;;;;6.61;64.34;99728.34;1688177;83;21470;-73
2021/05/07 03:42:06;;;;;;;24.65;16.12;;;;;;;6.59;64.38;99730.52;1692396;83;21226;-73
2021/05/07 03:44:34;;;;;;;26.15;15.13;;;;;;;6.58;64.46;99731.39;1670096;83;21191;-73
2021/05/07 03:47:01;;;;;;;23.00;14.78;;;;;;;6.61;64.63;99733.48;1684094;83;21096;-73
2021/05/07 03:49:30;;;;;;;21.82;14.83;;;;;;;6.63;64.62;99727.05;1667541;83;21190;-73
2021/05/07 03:51:57;;;;;;;22.50;14.98;;;;;;;6.66;64.70;99731.29;1683872;83;21225;-73
2021/05/07 03:54:23;;;;;;;23.10;15.58;;;;;;;6.66;64.66;99728.28;1681385;83;21237;-73
2021/05/07 03:56:53;;;;;;;26.42;16.07;;;;;;;6.66;64.79;99726.16;1685211;83;21191;-73
2021/05/07 03:59:20;;;;;;;29.85;16.52;;;;;;;6.69;64.80;99729.96;1681404;83;21214;-73
2021/05/07 04:01:46;;;;;;;27.87;16.00;;;;;;;6.67;64.84;99731.27;1670836;83;21214;-73
2021/05/07 04:04:13;;;;;;;20.08;15.48;;;;;;;6.72;64.91;99735.05;1682982;83;21052;-73
2021/05/07 04:06:39;;;;;;;28.83;16.27;;;;;;;6.73;64.93;99730.33;1667661;83;21202;-73
2021/05/07 04:09:15;;;;;;;24.43;15.45;;;;;;;6.75;64.98;99733.30;1670070;84;21234;-73
2021/05/07 04:14:18;;;;;;;26.57;15.63;;;;;;;6.82;65.00;99740.00;1678031;83;21135;-75
2021/05/07 04:16:45;;;;;;;25.57;15.18;;;;;;;6.87;65.12;99737.37;1680496;85;21136;-75
2021/05/07 04:19:11;;;;;;;21.12;15.00;;;;;;;6.94;65.15;99745.40;1678484;85;21134;-75
2021/05/07 04:21:38;;;;;;;20.92;13.72;;;;;;;6.98;65.05;99739.34;1674154;85;21110;-75
2021/05/07 04:24:05;;;;;;;19.55;13.35;;;;;;;7.00;65.08;99737.59;1672249;85;21155;-75
2021/05/07 04:26:31;;;;;;;18.37;13.85;;;;;;;7.01;65.15;99738.45;1673630;84;21029;-75
2021/05/07 04:28:58;;;;;;;23.00;15.13;;;;;;;7.03;65.21;99740.13;1680864;85;21123;-75
2021/05/07 04:31:26;;;;;;;23.62;15.70;;;;;;;7.08;65.37;99733.19;1673830;84;21175;-73
2021/05/07 04:33:53;;;;;;;23.15;15.75;;;;;;;7.14;65.34;99739.95;1670275;83;21546;-73
2021/05/07 04:36:19;;;;;;;;;;;;;;;7.18;65.33;99745.02;1673528;84;21117;-72
2021/05/07 04:38:45;;;;;;;22.30;13.18;;;;;;;7.21;65.74;99747.55;1678748;84;20261;-72
2021/05/07 04:41:11;;;;;;;22.58;15.05;;;;;;;7.22;65.46;99754.38;1675084;83;21100;-73
2021/05/07 04:43:38;;;;;;;19.55;13.95;;;;;;;7.29;65.62;99758.52;1655780;85;21148;-73
2021/05/07 04:46:04;;;;;;;20.65;15.20;;;;;;;7.36;65.46;99769.56;1673736;83;21123;-73
2021/05/07 04:48:31;;;;;;;21.62;13.55;;;;;;;7.37;65.51;99765.27;1672140;83;21549;-73
2021/05/07 04:50:58;;;;;;;22.77;14.30;;;;;;;7.40;65.64;99772.49;1673695;83;21166;-72
2021/05/07 04:53:24;;;;;;;26.37;13.60;;;;;;;7.45;65.63;99769.41;1677901;83;21559;-73
2021/05/07 04:55:51;;;;;;;17.82;12.65;;;;;;;7.51;65.71;99775.73;1672700;84;21127;-73
2021/05/07 04:58:17;;;;;;;18.50;12.82;;;;;;;7.57;65.61;99781.22;1672071;83;21147;-73
2021/05/07 05:00:46;;;;;;;18.60;12.55;;;;;;;7.63;65.75;99779.38;1676261;83;21150;-73
2021/05/07 05:03:13;;;;;;;20.70;12.90;;;;;;;7.73;65.88;99790.80;1672690;84;21589;-76
2021/05/07 05:05:39;;;;;;;16.87;12.40;;;;;;;7.84;65.94;99786.28;1673620;83;21735;-73
2021/05/07 05:08:05;;;;;;;20.48;12.93;;;;;;;7.93;65.71;99791.27;1673149;84;21143;-73
2021/05/07 05:10:33;;;;;;;18.67;13.43;;;;;;;7.99;65.75;99793.73;1674231;84;21206;-73
2021/05/07 05:12:59;;;;;;;17.82;12.75;;;;;;;8.13;65.95;99796.05;1671293;84;21796;-73
2021/05/07 05:15:26;;;;;;;22.37;14.03;;;;;;;8.28;65.93;99790.60;1670885;84;21622;-73
2021/05/07 05:17:53;;;;;;;22.42;13.62;;;;;;;8.38;65.80;99794.69;1673004;84;21464;-73
2021/05/07 05:20:19;;;;;;;23.02;13.60;;;;;;;8.47;65.77;99791.08;1663663;85;21218;-73
2021/05/07 05:22:46;;;;;;;27.45;14.50;;;;;;;8.47;65.93;99773.05;1671383;84;21246;-73
2021/05/07 05:25:13;;;;;;;20.15;12.53;;;;;;;8.68;65.88;99792.37;1650897;84;21210;-73
2021/05/07 05:27:39;;;;;;;22.00;14.15;;;;;;;8.81;65.82;99792.52;1668023;84;21124;-73
2021/05/07 05:30:07;;;;;;;20.62;13.90;;;;;;;8.92;65.88;99795.67;1670147;84;21139;-73
2021/05/07 05:32:36;;;;;;;21.17;12.58;;;;;;;9.04;65.89;99790.67;1670972;84;21168;-73
2021/05/07 05:35:03;;;;;;;19.55;12.37;;;;;;;9.19;65.64;99790.33;1665735;84;21127;-74
2021/05/07 05:37:30;;;;;;;19.15;12.53;;;;;;;9.27;65.61;99794.42;1671301;84;21143;-74
2021/05/07 05:39:56;;;;;;;21.52;13.03;;;;;;;9.36;65.73;99789.45;1670472;84;21166;-74
2021/05/07 05:42:22;;;;;;;24.80;12.68;;;;;;;9.55;65.87;99791.99;1669597;85;21143;-73
2021/05/07 05:44:49;;;;;;;16.93;11.65;;;;;;;9.68;65.64;99793.82;1672071;84;21207;-73
2021/05/07 05:47:15;;;;;;;18.40;12.00;;;;;;;9.71;65.50;99787.73;1673489;83;21257;-74
2021/05/07 05:49:42;;;;;;;18.10;12.95;;;;;;;9.78;65.63;99786.25;1675384;85;21200;-74
2021/05/07 05:52:08;;;;;;;17.07;12.30;;;;;;;9.93;65.65;99783.23;1665941;84;21217;-73
2021/05/07 05:54:35;;;;;;;13.43;10.53;;;;;;;10.09;65.56;99794.00;1669903;83;28550;-74
2021/05/07 05:57:01;;;;;;;14.85;9.75;;;;;;;10.26;65.54;99800.88;1673164;83;21202;-73
2021/05/07 05:59:27;;;;;;;10.63;8.75;;;;;;;10.43;65.49;99801.67;1668739;84;21233;-73
2021/05/07 06:01:57;;;;;;;12.63;8.45;;;;;;;10.70;65.48;99800.03;1674400;84;21667;-73
2021/05/07 06:04:24;;;;;;;10.35;8.13;;;;;;;10.96;65.46;99803.11;1674238;83;21198;-73
2021/05/07 06:06:50;;;;;;;13.25;8.15;;;;;;;11.33;65.54;99800.67;1669148;84;21026;-73
2021/05/07 06:09:16;;;;;;;12.03;8.33;;;;;;;11.67;65.45;99795.20;1666546;84;21234;-73
2021/05/07 06:11:43;;;;;;;11.55;8.80;;;;;;;11.91;65.12;99800.89;1645604;85;21230;-73
2021/05/07 06:14:09;;;;;;;12.23;7.25;;;;;;;12.05;65.02;99800.38;1671311;84;21207;-73
2021/05/07 06:16:36;;;;;;;10.75;6.92;;;;;;;12.31;65.04;99795.13;1671588;83;21108;-73
2021/05/07 06:19:05;;;;;;;13.32;7.58;;;;;;;12.50;64.64;99797.86;1668384;84;21238;-73
2021/05/07 06:21:32;;;;;;;12.03;7.12;;;;;;;12.67;64.68;99798.53;1670897;84;21247;-73
2021/05/07 06:23:59;;;;;;;9.83;7.92;;;;;;;12.88;64.72;99797.27;1668246;84;21214;-73
2021/05/07 06:26:25;;;;;;;8.08;7.15;;;;;;;13.14;64.77;99795.39;1673349;84;21171;-73
2021/05/07 06:28:51;;;;;;;9.78;7.30;;;;;;;13.63;64.69;99792.95;1671440;85;21582;-73
2021/05/07 06:31:18;;;;;;;10.98;6.20;;;;;;;13.99;64.42;99798.36;1672398;85;21151;-73
2021/05/07 06:33:45;;;;;;;10.70;7.10;;;;;;;14.22;64.35;99803.37;1672959;85;21159;-73
2021/05/07 06:36:12;;;;;;;7.28;5.62;;;;;;;14.47;64.00;99802.33;1673070;83;27852;-73
2021/05/07 06:38:39;;;;;;;9.83;5.87;;;;;;;14.68;64.06;99795.28;1652646;85;21531;-72
2021/05/07 06:41:05;;;;;;;9.23;6.62;;;;;;;15.02;64.09;99801.92;1671047;83;21096;-73
2021/05/07 06:43:32;;;;;;;8.43;7.12;;;;;;;15.35;64.07;99798.59;1670119;84;21665;-73
2021/05/07 06:45:58;;;;;;;8.23;6.15;;;;;;;15.71;63.75;99795.94;1669348;84;21217;-73
2021/05/07 06:48:24;;;;;;;8.05;6.33;;;;;;;15.94;63.61;99802.61;1671994;83;21857;-73
2021/05/07 06:50:51;;;;;;;11.33;7.12;;;;;;;16.25;63.67;99798.77;1673653;84;21202;-73
2021/05/07 06:53:19;;;;;;;6.58;5.87;;;;;;;16.52;63.48;99801.70;1667797;84;21205;-73
2021/05/07 06:55:45;;;;;;;8.30;6.58;;;;;;;16.80;63.50;99801.91;1669634;84;21262;-71
2021/05/07 06:58:11;;;;;;;11.18;7.17;;;;;;;16.93;63.15;99803.38;1671136;84;21234;-72
2021/05/07 07:00:38;;;;;;;12.85;7.10;;;;;;;16.99;63.37;99796.52;1673194;83;21710;-72
2021/05/07 07:03:04;;;;;;;10.43;6.53;;;;;;;17.26;63.13;99799.33;1672791;84;21797;-72
2021/05/07 07:05:31;;;;;;;;;;;;;;;17.43;63.25;99798.38;1674728;85;22374;-72
2021/05/07 07:07:58;;;;;;;7.90;6.10;;;;;;;17.78;62.47;99795.87;1669994;84;20333;-72
2021/05/07 07:10:25;;;;;;;7.15;5.95;;;;;;;18.10;62.99;99799.67;1651555;85;21242;-72
2021/05/07 07:12:51;;;;;;;7.58;6.37;;;;;;;18.37;63.15;99799.28;1676073;83;21229;-73
2021/05/07 07:15:18;;;;;;;5.15;4.60;;;;;;;18.75;63.42;99798.23;1677345;83;21231;-74
2021/05/07 07:17:44;;;;;;;5.70;4.60;;;;;;;18.73;62.77;99804.03;1671616;84;21249;-74
2021/05/07 07:20:14;;;;;;;6.95;5.15;;;;;;;18.62;62.60;99799.12;1650487;85;21222;-74
2021/05/07 07:22:41;;;;;;;7.22;6.22;;;;;;;18.72;62.96;99799.73;1668851;84;21248;-73
2021/05/07 07:25:10;;;;;;;7.65;4.90;;;;;;;18.77;62.49;99800.75;1672486;83;21277;-73
2021/05/07 07:27:36;;;;;;;5.83;5.10;;;;;;;18.56;61.90;99800.31;1670468;85;21127;-73
2021/05/07 07:30:04;;;;;;;9.40;5.30;;;;;;;18.38;62.08;99804.89;1670379;85;21187;-73
2021/05/07 07:32:30;;;;;;;7.42;5.00;;;;;;;18.17;61.74;99808.84;1667608;84;21009;-73
2021/05/07 07:35:01;;;;;;;7.03;4.83;;;;;;;17.93;61.67;99808.98;1675191;84;21147;-73
2021/05/07 07:37:25;;;;;;;6.75;4.62;;;;;;;17.57;61.33;99805.43;1670143;83;21107;-73
2021/05/07 07:39:52;;;;;;;5.33;4.42;;;;;;;17.09;61.09;99808.14;1651514;83;21162;-72
2021/05/07 07:42:18;;;;;;;5.37;4.53;;;;;;;16.83;61.23;99809.57;1671451;83;21127;-72
2021/05/07 07:44:44;;;;;;;9.43;6.08;;;;;;;16.54;60.95;99810.29;1672523;83;21166;-72
2021/05/07 07:47:12;;;;;;;6.25;4.55;;;;;;;16.29;60.92;99805.98;1672421;83;21119;-72
2021/05/07 07:49:38;;;;;;;;;;;;;;;16.09;60.83;99807.04;1674394;84;21123;-72
2021/05/07 07:52:08;;;;;;;8.43;5.40;;;;;;;15.99;60.37;99800.15;1672297;84;26809;-72
2021/05/07 07:54:34;;;;;;;6.10;4.87;;;;;;;15.87;60.64;99806.83;1669677;84;21233;-72
2021/05/07 07:57:01;;;;;;;7.30;5.33;;;;;;;15.69;60.48;99806.91;1671922;84;21064;-72
2021/05/07 07:59:27;;;;;;;7.25;5.05;;;;;;;15.63;60.35;99818.47;1670548;84;21722;-72
2021/05/07 08:01:54;;;;;;;6.53;5.28;;;;;;;15.45;59.96;99812.86;1675480;84;21226;-72
2021/05/07 08:04:20;;;;;;;9.70;5.45;;;;;;;15.18;59.92;99817.63;1673441;83;21210;-73
2021/05/07 08:06:47;;;;;;;;;;;;;;;14.97;59.73;99818.67;1673071;84;21226;-74
2021/05/07 08:09:14;;;;;;;6.65;5.45;;;;;;;14.77;59.27;99819.58;1671016;85;20837;-73
2021/05/07 08:11:40;;;;;;;5.37;4.80;;;;;;;14.61;59.62;99819.89;1671925;85;21486;-73
2021/05/07 08:14:07;;;;;;;6.00;4.85;;;;;;;14.49;59.42;99823.46;1673974;84;21126;-73
2021/05/07 08:16:33;;;;;;;4.90;4.40;;;;;;;14.33;59.36;99824.17;1675724;83;21489;-74
2021/05/07 08:19:00;;;;;;;4.70;4.30;;;;;;;14.18;59.18;99817.87;1677071;83;21130;-74
2021/05/07 08:21:28;;;;;;;5.78;4.75;;;;;;;13.99;59.05;99820.45;1678661;83;21147;-74
2021/05/07 08:23:56;;;;;;;4.08;3.70;;;;;;;13.76;58.97;99821.42;1672846;84;21121;-74
2021/05/07 08:26:23;;;;;;;4.85;3.80;;;;;;;13.59;58.92;99825.16;1673592;83;21139;-74
2021/05/07 08:28:49;;;;;;;5.15;4.28;;;;;;;13.47;58.82;99825.69;1675099;84;21499;-74
2021/05/07 08:31:15;;;;;;;4.55;3.62;;;;;;;13.31;58.55;99822.86;1671419;84;21206;-74
2021/05/07 08:33:42;;;;;;;3.95;3.55;;;;;;;13.12;58.58;99833.09;1670467;85;21266;-74
2021/05/07 08:36:08;;;;;;;4.53;3.17;;;;;;;12.99;58.49;99832.34;1670149;84;21227;-74
2021/05/07 08:38:35;;;;;;;3.65;2.67;;;;;;;12.78;58.39;99841.33;1670457;84;21227;-74
2021/05/07 08:41:06;;;;;;;4.33;2.62;;;;;;;12.37;58.16;99838.98;1657784;85;21242;-73
2021/05/07 08:43:32;;;;;;;2.95;2.47;;;;;;;11.93;58.12;99836.66;1672249;84;21150;-73
2021/05/07 08:46:06;;;;;;;4.03;3.00;;;;;;;11.52;58.21;99847.05;1672466;84;25288;-73
2021/05/07 08:48:34;;;;;;;4.08;3.37;;;;;;;11.14;58.26;99850.41;1672178;84;21222;-73
2021/05/07 08:51:02;;;;;;;3.52;2.98;;;;;;;10.73;58.38;99853.40;1679425;84;21205;-73
2021/05/07 08:53:30;;;;;;;3.75;3.33;;;;;;;10.35;58.30;99850.17;1677100;83;21207;-73
2021/05/07 08:55:56;;;;;;;4.50;3.35;;;;;;;10.00;58.50;99854.09;1678439;83;21250;-73
2021/05/07 08:58:23;;;;;;;4.75;3.35;;;;;;;9.69;58.62;99857.91;1680293;84;21202;-73
2021/05/07 09:00:50;;;;;;;4.35;3.17;;;;;;;9.49;58.85;99857.09;1679187;84;21009;-73
2021/05/07 09:03:17;;;;;;;5.97;4.10;;;;;;;9.44;59.05;99855.06;1679432;84;21115;-73
2021/05/07 09:05:43;;;;;;;5.55;3.42;;;;;;;9.49;59.16;99854.52;1679406;84;21175;-73
2021/05/07 09:08:10;;;;;;;4.10;3.02;;;;;;;9.65;59.16;99852.42;1680567;83;21017;-73
2021/05/07 09:10:42;;;;;;;5.83;2.80;;;;;;;9.82;59.20;99858.02;1679650;84;21044;-74
2021/05/07 09:13:11;;;;;;;3.05;2.50;;;;;;;10.02;59.02;99849.30;1655676;84;21539;-74
2021/05/07 09:15:52;;;;;;;4.08;2.75;;;;;;;10.09;59.04;99849.98;1679005;83;21135;-74
2021/05/07 09:18:19;;;;;;;2.10;1.92;;;;;;;10.21;59.00;99849.70;1674351;83;21159;-74
2021/05/07 09:20:49;;;;;;;4.20;2.47;;;;;;;10.32;58.71;99852.84;1678216;84;21175;-74
2021/05/07 09:23:17;;;;;;;6.22;4.97;;;;;;;10.38;58.81;99859.58;1675958;84;21143;-74
2021/05/07 09:25:56;;;;;;;7.03;5.00;;;;;;;10.47;58.92;99858.85;1680928;84;21163;-76
2021/05/07 09:28:23;;;;;;;31.55;19.00;;;;;;;10.56;58.89;99865.51;1631097;83;21127;-75
2021/05/07 09:30:50;;;;;;;5.78;3.60;;;;;;;10.66;58.94;99877.28;1679037;83;21142;-75
2021/05/07 09:33:17;;;;;;;5.40;3.08;;;;;;;10.68;58.91;99879.38;1677253;84;21138;-74
2021/05/07 09:35:45;;;;;;;2.52;2.25;;;;;;;10.68;58.79;99887.14;1678754;83;21556;-74
2021/05/07 09:38:16;;;;;;;3.10;2.27;;;;;;;10.66;58.94;99885.48;1672274;84;21238;-74
2021/05/07 09:40:43;;;;;;;6.15;2.30;;;;;;;10.60;58.84;99884.77;1677887;84;21160;-74
2021/05/07 09:43:14;;;;;;;2.30;2.10;;;;;;;10.56;59.04;99886.19;1677566;83;21151;-74
2021/05/07 09:45:45;;;;;;;2.77;1.90;;;;;;;10.54;59.09;99880.21;1680010;84;21174;-75
2021/05/07 09:48:27;;;;;;;2.45;1.72;;;;;;;10.53;59.12;99881.95;1672373;84;21457;-75
2021/05/07 09:51:03;;;;;;;2.10;1.90;;;;;;;10.54;59.52;99890.11;1672999;84;21045;-75
2021/05/07 09:53:40;;;;;;;3.30;1.80;;;;;;;10.58;59.64;99889.13;1676649;84;20992;-75
2021/05/07 09:56:16;;;;;;;2.75;1.82;;;;;;;10.66;59.77;99896.68;1679951;84;21172;-74
2021/05/07 09:58:43;;;;;;;2.67;1.83;;;;;;;10.74;59.89;99896.47;1667781;83;20997;-75
2021/05/07 10:01:10;;;;;;;;;;;;;;;10.73;59.67;99898.20;1680223;84;21166;-75
2021/05/07 10:03:36;;;;;;;49.93;14.03;;;;;;;10.72;60.14;99896.51;1674167;84;20270;-74
2021/05/07 10:06:04;;;;;;;70.35;17.25;;;;;;;10.68;59.77;99896.63;1680892;84;21147;-74
2021/05/07 10:08:43;;;;;;;5.12;3.05;;;;;;;10.71;59.89;99909.03;1677901;85;21020;-74
2021/05/07 10:11:10;;;;;;;3.67;2.17;;;;;;;10.75;59.73;99904.63;1675588;84;21022;-75
2021/05/07 10:13:38;;;;;;;2.67;2.12;;;;;;;10.72;59.59;99908.59;1677338;84;21143;-74
2021/05/07 10:16:06;;;;;;;2.47;1.85;;;;;;;10.74;59.77;99906.36;1675686;84;21126;-74
2021/05/07 10:18:35;;;;;;;3.08;1.52;;;;;;;10.78;59.82;99902.80;1675888;83;21141;-73
2021/05/07 10:21:08;;;;;;;7.62;4.45;;;;;;;10.92;59.87;99904.52;1664251;83;21134;-74
2021/05/07 10:23:36;;;;;;;3.62;2.37;;;;;;;11.10;60.10;99907.02;1672476;84;21008;-74
2021/05/07 10:26:07;;;;;;;2.12;1.65;;;;;;;11.31;59.99;99910.72;1655101;85;21005;-73
2021/05/07 10:28:51;;;;;;;1.52;1.15;;;;;;;11.49;59.97;99905.39;1679195;84;21020;-73
2021/05/07 10:31:20;;;;;;;1.35;1.00;;;;;;;11.75;59.96;99908.46;1656813;84;21875;-74
2021/05/07 10:34:06;;;;;;;0.80;0.80;;;;;;;12.00;59.72;99907.22;1678618;83;20972;-74
2021/05/07 10:36:42;;;;;;;1.35;1.05;;;;;;;12.18;59.63;99907.91;1673619;83;21011;-73
2021/05/07 10:39:30;;;;;;;1.50;1.20;;;;;;;12.23;59.25;99915.08;1672277;84;26592;-74
2021/05/07 10:42:00;;;;;;;2.65;1.77;;;;;;;12.12;59.08;99913.30;1673528;84;21127;-73
2021/05/07 10:44:30;;;;;;;2.33;1.10;;;;;;;12.09;59.14;99914.24;1672887;83;21004;-73
2021/05/07 10:47:09;;;;;;;1.57;1.30;;;;;;;12.07;59.13;99913.90;1685590;83;21047;-74
2021/05/07 10:49:38;;;;;;;2.27;1.10;;;;;;;12.04;59.21;99917.88;1691850;83;21169;-73
2021/05/07 10:52:07;;;;;;;1.37;1.15;;;;;;;11.95;59.08;99922.11;1673921;84;21616;-74
2021/05/07 10:54:53;;;;;;;2.00;1.62;;;;;;;11.90;59.04;99928.28;1688941;84;21140;-73
2021/05/07 10:57:32;;;;;;;1.60;1.50;;;;;;;11.77;58.84;99927.42;1666551;84;21222;-74
2021/05/07 11:00:16;;;;;;;1.67;1.55;;;;;;;11.63;58.82;99937.34;1670328;85;21262;-74
2021/05/07 11:02:54;;;;;;;3.30;1.62;;;;;;;11.50;59.02;99940.30;1670170;85;21104;-73
2021/05/07 11:05:40;;;;;;;1.77;1.30;;;;;;;11.47;59.08;99942.13;1671522;84;21714;-74
2021/05/07 11:08:08;;;;;;;3.10;1.60;;;;;;;11.51;59.18;99945.03;1673416;83;21724;-74
2021/05/07 11:10:34;;;;;;;1.62;1.45;;;;;;;11.55;59.11;99951.81;1676077;83;21673;-74
2021/05/07 11:13:01;;;;;;;2.08;1.47;;;;;;;11.55;58.98;99958.28;1679103;83;21211;-74
2021/05/07 11:15:27;;;;;;;1.90;1.67;;;;;;;11.51;58.94;99963.16;1675160;83;21639;-74
2021/05/07 11:18:07;;;;;;;1.37;1.22;;;;;;;11.48;58.90;99970.56;1676465;84;21604;-74
2021/05/07 11:20:45;;;;;;;1.92;1.50;;;;;;;11.42;58.94;99973.81;1680490;83;21217;-74
2021/05/07 11:23:19;;;;;;;1.52;1.27;;;;;;;11.38;58.88;99977.39;1674610;83;21453;-75
2021/05/07 11:25:46;;;;;;;1.60;1.50;;;;;;;11.34;58.80;99984.84;1677466;84;21013;-75
2021/05/07 11:28:21;;;;;;;2.02;1.60;;;;;;;11.28;58.93;99990.59;1678297;85;21015;-75
2021/05/07 11:30:58;;;;;;;2.55;1.62;;;;;;;11.22;58.74;99995.09;1676429;83;21925;-75
2021/05/07 11:33:28;;;;;;;2.30;1.20;;;;;;;11.03;58.54;100002.97;1678382;85;21238;-75
2021/05/07 11:36:10;;;;;;;2.00;1.50;;;;;;;10.83;58.68;100006.97;1673303;84;21682;-75
2021/05/07 11:38:39;;;;;;;1.60;1.50;;;;;;;10.74;58.65;100013.68;1676267;83;21036;-75
2021/05/07 11:41:25;;;;;;;1.70;1.35;;;;;;;10.54;58.69;100023.23;1674890;84;21001;-74